CY715 KMSP-KDEN
Flight info
| Callsign | CY715 |
|---|---|
| Flight time | N/A |
| Altitude | FL330 |
| Route | KMSP/30L SCHEP1 RXANN DCT TEYOU DCT LLUKY DCT PORDR AALLE4 KDEN/34R |
| Aircraft | B738/M-S/N |
Departure
| Time | 2026-05-04 14:52 |
|---|---|
| Airport | Minneapolis–Saint Paul International Airport / Wold–Chamberlain Field (KMSP) |
Arrival
| Time | N/A |
|---|---|
| Airport | Denver International Airport (KDEN) |
| Time | Latitude | Longitude | Altitude | Speed | Heading |
|---|---|---|---|---|---|
| 2026-05-04 14:33 | 44.88552 | -93.21460 | 850 ft | 0 kts | 108° |
| 2026-05-04 14:37 | 44.88552 | -93.21462 | 850 ft | 1 kts | 110° |
| 2026-05-04 14:37 | 44.88552 | -93.21482 | 850 ft | 2 kts | 90° |
| 2026-05-04 14:37 | 44.88554 | -93.21506 | 850 ft | 2 kts | 97° |
| 2026-05-04 14:37 | 44.88556 | -93.21533 | 850 ft | 2 kts | 96° |
| 2026-05-04 14:38 | 44.88557 | -93.21549 | 850 ft | 2 kts | 96° |
| 2026-05-04 14:38 | 44.88559 | -93.21570 | 850 ft | 2 kts | 97° |
| 2026-05-04 14:38 | 44.88563 | -93.21580 | 850 ft | 1 kts | 158° |
| 2026-05-04 14:38 | 44.88572 | -93.21580 | 850 ft | 1 kts | 211° |
| 2026-05-04 14:39 | 44.88577 | -93.21574 | 850 ft | 1 kts | 230° |
| 2026-05-04 14:39 | 44.88579 | -93.21571 | 850 ft | 0 kts | 225° |
| 2026-05-04 14:43 | 44.88580 | -93.21569 | 850 ft | 0 kts | 225° |
| 2026-05-04 14:44 | 44.88573 | -93.21580 | 850 ft | 5 kts | 225° |
| 2026-05-04 14:44 | 44.88545 | -93.21620 | 850 ft | 7 kts | 227° |
| 2026-05-04 14:44 | 44.88507 | -93.21675 | 850 ft | 11 kts | 225° |
| 2026-05-04 14:44 | 44.88440 | -93.21772 | 850 ft | 16 kts | 227° |
| 2026-05-04 14:45 | 44.88352 | -93.21897 | 850 ft | 20 kts | 220° |
| 2026-05-04 14:45 | 44.88231 | -93.22009 | 850 ft | 22 kts | 210° |
| 2026-05-04 14:45 | 44.88108 | -93.22159 | 850 ft | 25 kts | 229° |
| 2026-05-04 14:45 | 44.87991 | -93.22333 | 850 ft | 22 kts | 224° |
| 2026-05-04 14:46 | 44.87870 | -93.22510 | 850 ft | 27 kts | 226° |
| 2026-05-04 14:46 | 44.87737 | -93.22701 | 850 ft | 26 kts | 226° |
| 2026-05-04 14:46 | 44.87615 | -93.22873 | 850 ft | 23 kts | 226° |
| 2026-05-04 14:46 | 44.87507 | -93.23026 | 850 ft | 21 kts | 226° |
| 2026-05-04 14:47 | 44.87403 | -93.23154 | 850 ft | 19 kts | 202° |
| 2026-05-04 14:47 | 44.87289 | -93.23229 | 850 ft | 17 kts | 219° |
| 2026-05-04 14:47 | 44.87204 | -93.23353 | 850 ft | 18 kts | 228° |
| 2026-05-04 14:47 | 44.87119 | -93.23485 | 850 ft | 18 kts | 229° |
| 2026-05-04 14:48 | 44.87046 | -93.23591 | 850 ft | 8 kts | 221° |
| 2026-05-04 14:48 | 44.87028 | -93.23603 | 850 ft | 6 kts | 188° |
| 2026-05-04 14:48 | 44.86968 | -93.23597 | 850 ft | 11 kts | 175° |
| 2026-05-04 14:48 | 44.86884 | -93.23577 | 850 ft | 14 kts | 169° |
| 2026-05-04 14:49 | 44.86781 | -93.23552 | 850 ft | 15 kts | 169° |
| 2026-05-04 14:49 | 44.86698 | -93.23531 | 850 ft | 6 kts | 178° |
| 2026-05-04 14:49 | 44.86668 | -93.23542 | 850 ft | 4 kts | 208° |
| 2026-05-04 14:49 | 44.86653 | -93.23558 | 850 ft | 0 kts | 220° |
| 2026-05-04 14:50 | 44.86645 | -93.23574 | 850 ft | 6 kts | 248° |
| 2026-05-04 14:50 | 44.86646 | -93.23666 | 850 ft | 11 kts | 308° |
| 2026-05-04 14:51 | 44.86670 | -93.23682 | 850 ft | 1 kts | 347° |
| 2026-05-04 14:51 | 44.86857 | -93.23735 | 850 ft | 67 kts | 347° |
| 2026-05-04 14:51 | 44.87545 | -93.24029 | 897 ft | 133 kts | 342° |
| 2026-05-04 14:51 | 44.88516 | -93.24280 | 1423 ft | 147 kts | 347° |
| 2026-05-04 14:52 | 44.89356 | -93.24436 | 2593 ft | 112 kts | 340° |
| 2026-05-04 14:52 | 44.90027 | -93.25213 | 2370 ft | 163 kts | 286° |
| 2026-05-04 14:52 | 44.89859 | -93.26913 | 2601 ft | 197 kts | 242° |
| 2026-05-04 14:52 | 44.88880 | -93.28192 | 3483 ft | 197 kts | 220° |
| 2026-05-04 14:53 | 44.87653 | -93.29240 | 3899 ft | 220 kts | 227° |
| 2026-05-04 14:53 | 44.86659 | -93.30983 | 4371 ft | 238 kts | 243° |
| 2026-05-04 14:53 | 44.85718 | -93.32948 | 5162 ft | 252 kts | 240° |
| 2026-05-04 14:53 | 44.84623 | -93.35007 | 5733 ft | 273 kts | 238° |
| 2026-05-04 14:54 | 44.83480 | -93.37110 | 6776 ft | 274 kts | 238° |
| 2026-05-04 14:54 | 44.82323 | -93.39238 | 7693 ft | 279 kts | 238° |
| 2026-05-04 14:54 | 44.81149 | -93.41401 | 8602 ft | 283 kts | 238° |
| 2026-05-04 14:54 | 44.79956 | -93.43601 | 9516 ft | 286 kts | 238° |
| 2026-05-04 14:55 | 44.78749 | -93.45824 | 10380 ft | 291 kts | 238° |
| 2026-05-04 14:55 | 44.77479 | -93.48165 | 10711 ft | 315 kts | 238° |
| 2026-05-04 14:55 | 44.76111 | -93.50688 | 11089 ft | 335 kts | 237° |
| 2026-05-04 14:55 | 44.74658 | -93.53357 | 11399 ft | 355 kts | 237° |
| 2026-05-04 14:56 | 44.73150 | -93.56115 | 12187 ft | 359 kts | 237° |
| 2026-05-04 14:56 | 44.71617 | -93.58913 | 12789 ft | 368 kts | 237° |
| 2026-05-04 14:56 | 44.70049 | -93.61783 | 13348 ft | 377 kts | 237° |
| 2026-05-04 14:56 | 44.68460 | -93.64832 | 13344 ft | 400 kts | 240° |
| 2026-05-04 14:57 | 44.66946 | -93.68195 | 13536 ft | 414 kts | 244° |
| 2026-05-04 14:57 | 44.65595 | -93.71906 | 12938 ft | 440 kts | 249° |
| 2026-05-04 14:57 | 44.65102 | -93.73611 | 12566 ft | 446 kts | 253° |
| 2026-05-04 14:58 | 44.64939 | -93.74259 | 12456 ft | 450 kts | 254° |
| 2026-05-04 14:58 | 44.64135 | -93.78569 | 11451 ft | 462 kts | 263° |
| 2026-05-04 14:58 | 44.63652 | -93.82984 | 11383 ft | 447 kts | 263° |
| 2026-05-04 14:58 | 44.63341 | -93.86827 | 13928 ft | 375 kts | 270° |
| 2026-05-04 14:59 | 44.63356 | -93.90288 | 15035 ft | 347 kts | 278° |
| 2026-05-04 14:59 | 44.63738 | -93.93435 | 16417 ft | 312 kts | 283° |
| 2026-05-04 14:59 | 44.64903 | -93.98384 | 18639 ft | 261 kts | 302° |
| 2026-05-04 15:00 | 44.65149 | -93.98940 | 18937 ft | 253 kts | 306° |
| 2026-05-04 15:00 | 44.66259 | -94.00668 | 19896 ft | 233 kts | 321° |
| 2026-05-04 15:00 | 44.67629 | -94.01760 | 20513 ft | 228 kts | 338° |
| 2026-05-04 15:01 | 44.48262 | -94.16374 | 21209 ft | 222 kts | 335° |
| 2026-05-04 15:02 | 44.49166 | -94.16892 | 21187 ft | 233 kts | 334° |
| 2026-05-04 15:02 | 44.50678 | -94.17746 | 21478 ft | 238 kts | 336° |
| 2026-05-04 15:02 | 44.51836 | -94.18316 | 21717 ft | 245 kts | 339° |
| 2026-05-04 15:03 | 44.53448 | -94.18905 | 22046 ft | 255 kts | 345° |
| 2026-05-04 15:03 | 44.55239 | -94.19208 | 22430 ft | 267 kts | 353° |
| 2026-05-04 15:03 | 44.57091 | -94.19085 | 22857 ft | 277 kts | 360° |
| 2026-05-04 15:03 | 44.58973 | -94.19185 | 23175 ft | 278 kts | 339° |
| 2026-05-04 15:04 | 44.60579 | -94.20571 | 23594 ft | 277 kts | 310° |
| 2026-05-04 15:04 | 44.61390 | -94.22981 | 24075 ft | 286 kts | 282° |
| 2026-05-04 15:04 | 44.61251 | -94.25750 | 24508 ft | 300 kts | 262° |
| 2026-05-04 15:04 | 44.60640 | -94.28510 | 25009 ft | 308 kts | 252° |
| 2026-05-04 15:05 | 44.59403 | -94.30960 | 25243 ft | 335 kts | 226° |
| 2026-05-04 15:05 | 44.57430 | -94.32601 | 25933 ft | 341 kts | 211° |
| 2026-05-04 15:05 | 44.55297 | -94.33892 | 26332 ft | 347 kts | 211° |
| 2026-05-04 15:05 | 44.53100 | -94.35236 | 26859 ft | 346 kts | 211° |
| 2026-05-04 15:06 | 44.50914 | -94.36575 | 27369 ft | 346 kts | 211° |
| 2026-05-04 15:06 | 44.49005 | -94.37740 | 27690 ft | 349 kts | 211° |
| 2026-05-04 15:06 | 44.46777 | -94.39103 | 28088 ft | 352 kts | 211° |
| 2026-05-04 15:07 | 44.42341 | -94.41798 | 29135 ft | 348 kts | 211° |
| 2026-05-04 15:07 | 44.40127 | -94.43136 | 29465 ft | 352 kts | 211° |
| 2026-05-04 15:07 | 44.37897 | -94.44479 | 29922 ft | 350 kts | 211° |
| 2026-05-04 15:07 | 44.35665 | -94.45814 | 30319 ft | 352 kts | 211° |
| 2026-05-04 15:08 | 44.33435 | -94.47153 | 30629 ft | 355 kts | 211° |
| 2026-05-04 15:08 | 44.31177 | -94.48504 | 31037 ft | 354 kts | 211° |
| 2026-05-04 15:08 | 44.28926 | -94.49842 | 31455 ft | 353 kts | 211° |
| 2026-05-04 15:08 | 44.26668 | -94.51181 | 31761 ft | 356 kts | 211° |
| 2026-05-04 15:09 | 44.24391 | -94.52534 | 32076 ft | 358 kts | 211° |
| 2026-05-04 15:09 | 44.22126 | -94.53876 | 32511 ft | 355 kts | 211° |
| 2026-05-04 15:09 | 44.19868 | -94.55207 | 32783 ft | 358 kts | 211° |
| 2026-05-04 15:10 | 44.15769 | -94.58551 | 33410 ft | 343 kts | 227° |
| 2026-05-04 15:10 | 44.13931 | -94.60524 | 33739 ft | 341 kts | 227° |
| 2026-05-04 15:10 | 44.10235 | -94.64428 | 33055 ft | 344 kts | 226° |
| 2026-05-04 15:11 | 44.08368 | -94.66415 | 33104 ft | 350 kts | 226° |
| 2026-05-04 15:11 | 44.04452 | -94.70636 | 33087 ft | 369 kts | 226° |
| 2026-05-04 15:12 | 44.00328 | -94.75149 | 33085 ft | 388 kts | 226° |
| 2026-05-04 15:12 | 43.96060 | -94.79889 | 33088 ft | 405 kts | 226° |
| 2026-05-04 15:13 | 43.91597 | -94.84882 | 33093 ft | 421 kts | 226° |
| 2026-05-04 15:13 | 43.15907 | -95.66436 | 33084 ft | 438 kts | 226° |
| 2026-05-04 15:14 | 42.18033 | -96.65180 | 32869 ft | 432 kts | 227° |
| 2026-05-04 15:14 | 42.07914 | -96.74847 | 33138 ft | 416 kts | 227° |
| 2026-05-04 15:14 | 42.05115 | -96.77525 | 33147 ft | 413 kts | 228° |
| 2026-05-04 15:15 | 41.97741 | -96.84601 | 33143 ft | 419 kts | 228° |
| 2026-05-04 15:15 | 41.51683 | -97.28733 | 33138 ft | 422 kts | 228° |
| 2026-05-04 15:16 | 41.17978 | -97.61087 | 32878 ft | 427 kts | 228° |
| 2026-05-04 15:18 | 41.15838 | -97.63171 | 33077 ft | 427 kts | 229° |
| 2026-05-04 15:19 | 41.08830 | -97.70046 | 34083 ft | 424 kts | 228° |
| 2026-05-04 15:19 | 41.06327 | -97.72489 | 34421 ft | 423 kts | 228° |
| 2026-05-04 15:19 | 41.00841 | -97.77890 | 35075 ft | 422 kts | 228° |
| 2026-05-04 15:20 | 40.98107 | -97.80603 | 35445 ft | 421 kts | 228° |
| 2026-05-04 15:20 | 40.95196 | -97.83518 | 35753 ft | 420 kts | 228° |
| 2026-05-04 15:20 | 40.92100 | -97.86630 | 36195 ft | 418 kts | 229° |
| 2026-05-04 15:20 | 40.89162 | -97.89604 | 36563 ft | 415 kts | 230° |
| 2026-05-04 15:21 | 40.86356 | -97.92893 | 36852 ft | 403 kts | 238° |
| 2026-05-04 15:21 | 40.84299 | -97.95831 | 37018 ft | 398 kts | 239° |
| 2026-05-04 15:21 | 40.80228 | -98.01656 | 37503 ft | 396 kts | 239° |
| 2026-05-04 15:22 | 40.78160 | -98.04598 | 37540 ft | 388 kts | 239° |
| 2026-05-04 15:22 | 40.76080 | -98.07541 | 36851 ft | 390 kts | 239° |
| 2026-05-04 15:22 | 40.72142 | -98.13122 | 35976 ft | 380 kts | 239° |
| 2026-05-04 15:23 | 40.70219 | -98.15829 | 35391 ft | 379 kts | 239° |
| 2026-05-04 15:23 | 40.68343 | -98.18453 | 34979 ft | 374 kts | 239° |
| 2026-05-04 15:23 | 40.66506 | -98.21015 | 34477 ft | 372 kts | 239° |
| 2026-05-04 15:23 | 40.64702 | -98.23521 | 33999 ft | 369 kts | 239° |
| 2026-05-04 15:24 | 40.61000 | -98.28666 | 32998 ft | 364 kts | 239° |
| 2026-05-04 15:24 | 40.57405 | -98.33677 | 32061 ft | 356 kts | 239° |
| 2026-05-04 15:25 | 40.55543 | -98.36294 | 31541 ft | 354 kts | 239° |
| 2026-05-04 15:25 | 40.53668 | -98.38935 | 31022 ft | 352 kts | 239° |
| 2026-05-04 15:25 | 40.51595 | -98.41870 | 30432 ft | 349 kts | 239° |
| 2026-05-04 15:26 | 40.47162 | -98.48143 | 29496 ft | 337 kts | 239° |
| 2026-05-04 15:26 | 40.45530 | -98.50458 | 28860 ft | 341 kts | 239° |
| 2026-05-04 15:26 | 40.42243 | -98.55158 | 28139 ft | 329 kts | 239° |
| 2026-05-04 15:27 | 40.40668 | -98.57426 | 27604 ft | 329 kts | 239° |
| 2026-05-04 15:27 | 40.37392 | -98.62148 | 26677 ft | 324 kts | 239° |
| 2026-05-04 15:28 | 40.33176 | -98.68332 | 25510 ft | 317 kts | 242° |
| 2026-05-04 15:28 | 40.28275 | -98.76924 | 25784 ft | 302 kts | 245° |
| 2026-05-04 15:28 | 39.96346 | -99.34204 | 25683 ft | 321 kts | 245° |
| 2026-05-04 15:29 | 39.84015 | -99.57569 | 25330 ft | 325 kts | 245° |
| 2026-05-04 15:30 | 39.78632 | -99.71512 | 25530 ft | 300 kts | 270° |
| 2026-05-04 15:30 | 39.63075 | -100.66073 | 25530 ft | 299 kts | 272° |
| 2026-05-04 15:31 | 39.61874 | -101.46794 | 25586 ft | 311 kts | 276° |
| 2026-05-04 15:31 | 39.61961 | -101.49688 | 25577 ft | 309 kts | 281° |
| 2026-05-04 15:32 | 39.66476 | -102.08309 | 25588 ft | 307 kts | 281° |
| 2026-05-04 15:32 | 39.72392 | -102.46033 | 25596 ft | 303 kts | 287° |
| 2026-05-04 15:33 | 39.83767 | -103.17535 | 25615 ft | 305 kts | 286° |
| 2026-05-04 15:34 | 39.85896 | -103.31164 | 24609 ft | 312 kts | 275° |
| 2026-05-04 15:34 | 39.85817 | -103.33032 | 24361 ft | 312 kts | 268° |
| 2026-05-04 15:34 | 39.85127 | -103.39191 | 23056 ft | 308 kts | 267° |
| 2026-05-04 15:35 | 39.84554 | -103.44717 | 21861 ft | 302 kts | 269° |
| 2026-05-04 15:35 | 39.84336 | -103.47475 | 21394 ft | 299 kts | 269° |
| 2026-05-04 15:35 | 39.84140 | -103.50192 | 20991 ft | 296 kts | 271° |
| 2026-05-04 15:36 | 39.83943 | -103.55589 | 19775 ft | 305 kts | 272° |
| 2026-05-04 15:36 | 39.83856 | -103.58370 | 19036 ft | 313 kts | 272° |
| 2026-05-04 15:36 | 39.83770 | -103.61236 | 18746 ft | 304 kts | 272° |
| 2026-05-04 15:37 | 39.83683 | -103.64064 | 18606 ft | 292 kts | 273° |
| 2026-05-04 15:37 | 39.83644 | -103.68265 | 18053 ft | 287 kts | 274° |
| 2026-05-04 15:37 | 39.83613 | -103.77036 | 17131 ft | 280 kts | 274° |
| 2026-05-04 15:37 | 39.83601 | -103.79666 | 16710 ft | 279 kts | 274° |
| 2026-05-04 15:38 | 39.83588 | -103.83077 | 16294 ft | 276 kts | 274° |
| 2026-05-04 15:38 | 39.83576 | -103.86399 | 15774 ft | 275 kts | 274° |
| 2026-05-04 15:38 | 39.83591 | -103.89072 | 15369 ft | 273 kts | 275° |
| 2026-05-04 15:38 | 39.83630 | -103.92210 | 14903 ft | 270 kts | 276° |
| 2026-05-04 15:39 | 39.84037 | -104.04205 | 13293 ft | 265 kts | 277° |
| 2026-05-04 15:39 | 39.84145 | -104.06727 | 12922 ft | 263 kts | 277° |
| 2026-05-04 15:39 | 39.84374 | -104.12056 | 12012 ft | 264 kts | 277° |
| 2026-05-04 15:40 | 39.84495 | -104.14644 | 11402 ft | 269 kts | 277° |
| 2026-05-04 15:40 | 39.84646 | -104.17268 | 10785 ft | 274 kts | 279° |
| 2026-05-04 15:40 | 39.85035 | -104.20448 | 10038 ft | 277 kts | 283° |
| 2026-05-04 15:40 | 39.85486 | -104.23433 | 9403 ft | 278 kts | 282° |
| 2026-05-04 15:41 | 39.85931 | -104.26281 | 9289 ft | 266 kts | 283° |
| 2026-05-04 15:41 | 39.86380 | -104.29137 | 9166 ft | 245 kts | 283° |
| 2026-05-04 15:41 | 39.86787 | -104.31716 | 9040 ft | 224 kts | 283° |
| 2026-05-04 15:41 | 39.87160 | -104.34064 | 8855 ft | 207 kts | 283° |
| 2026-05-04 15:42 | 39.87348 | -104.36341 | 8104 ft | 212 kts | 269° |
| 2026-05-04 15:42 | 39.87237 | -104.38835 | 7541 ft | 207 kts | 269° |
| 2026-05-04 15:42 | 39.87254 | -104.40519 | 7300 ft | 201 kts | 272° |
| 2026-05-04 15:42 | 39.87277 | -104.41480 | 7312 ft | 200 kts | 272° |
| 2026-05-04 15:43 | 39.87330 | -104.43988 | 7365 ft | 207 kts | 272° |
| 2026-05-04 15:43 | 39.87407 | -104.46503 | 7351 ft | 204 kts | 273° |
| 2026-05-04 15:43 | 39.87497 | -104.49005 | 7384 ft | 197 kts | 273° |
| 2026-05-04 15:43 | 39.87582 | -104.51448 | 7323 ft | 173 kts | 273° |
| 2026-05-04 15:44 | 39.87650 | -104.53353 | 7188 ft | 139 kts | 273° |
| 2026-05-04 15:44 | 39.87701 | -104.54829 | 6695 ft | 142 kts | 272° |
| 2026-05-04 15:44 | 39.87749 | -104.55980 | 6351 ft | 140 kts | 272° |
| 2026-05-04 15:44 | 39.87773 | -104.57109 | 6185 ft | 140 kts | 269° |